createdAt,value
2022-10-19T00:01:51.836Z,0.30
2022-10-19T00:04:19.676Z,0.40
2022-10-19T00:06:47.487Z,0.30
2022-10-19T00:09:19.241Z,0.40
2022-10-19T00:11:48.328Z,0.57
2022-10-19T00:14:18.435Z,0.57
2022-10-19T00:16:47.763Z,0.60
2022-10-19T00:19:16.951Z,0.40
2022-10-19T00:21:44.766Z,0.60
2022-10-19T00:24:12.566Z,0.43
2022-10-19T00:26:40.302Z,0.60
2022-10-19T00:29:08.117Z,0.52
2022-10-19T00:31:35.911Z,0.63
2022-10-19T00:34:03.650Z,0.50
2022-10-19T00:36:32.413Z,0.82
2022-10-19T00:39:00.186Z,0.55
2022-10-19T00:41:29.117Z,0.67
2022-10-19T00:43:56.876Z,0.50
2022-10-19T00:46:24.625Z,0.68
2022-10-19T00:48:53.187Z,0.80
2022-10-19T00:51:20.872Z,0.50
2022-10-19T00:53:48.523Z,0.50
2022-10-19T00:56:16.273Z,0.40
2022-10-19T00:58:44.123Z,0.60
2022-10-19T01:01:13.585Z,0.60
2022-10-19T01:03:41.294Z,0.60
2022-10-19T01:06:09.322Z,0.50
2022-10-19T01:08:36.969Z,0.63
2022-10-19T01:11:24.005Z,0.70
2022-10-19T01:14:10.522Z,0.70
2022-10-19T01:17:11.416Z,0.43
2022-10-19T01:19:42.018Z,0.82
2022-10-19T01:22:09.726Z,0.85
2022-10-19T01:24:39.896Z,0.80
2022-10-19T01:27:23.899Z,0.82
2022-10-19T01:29:51.541Z,0.60
2022-10-19T01:32:25.146Z,0.87
2022-10-19T01:34:55.907Z,0.82
2022-10-19T01:37:23.613Z,0.82
2022-10-19T01:39:54.887Z,0.85
2022-10-19T01:42:41.325Z,0.83
2022-10-19T01:45:09.194Z,0.57
2022-10-19T01:47:37.867Z,0.65
2022-10-19T01:50:17.000Z,0.60
2022-10-19T01:52:44.938Z,0.52
2022-10-19T01:55:13.304Z,0.63
2022-10-19T01:57:41.799Z,0.60
2022-10-19T02:00:09.791Z,0.60
2022-10-19T02:02:37.973Z,1.38
2022-10-19T02:05:05.841Z,0.98
2022-10-19T02:07:33.483Z,0.63
2022-10-19T02:10:01.304Z,0.90
2022-10-19T02:12:29.475Z,0.80
2022-10-19T02:14:57.787Z,2.07
2022-10-19T02:17:26.520Z,0.57
2022-10-19T02:19:54.652Z,0.82
2022-10-19T02:22:22.517Z,0.50
2022-10-19T02:24:50.203Z,0.90
2022-10-19T02:27:17.939Z,0.80
2022-10-19T02:29:45.620Z,0.90
2022-10-19T02:32:13.333Z,0.57
2022-10-19T02:34:41.059Z,0.77
2022-10-19T02:37:08.802Z,0.82
2022-10-19T02:39:36.521Z,1.07
2022-10-19T02:42:13.762Z,0.90
2022-10-19T02:44:49.400Z,0.73
2022-10-19T02:47:20.800Z,1.00
2022-10-19T02:49:48.572Z,0.80
2022-10-19T02:52:16.278Z,0.80
2022-10-19T02:54:44.406Z,0.50
2022-10-19T02:57:18.784Z,0.67
2022-10-19T02:59:46.607Z,1.33
2022-10-19T03:02:14.661Z,1.45
2022-10-19T03:04:42.417Z,0.40
2022-10-19T03:07:10.799Z,0.40
2022-10-19T03:09:38.564Z,0.70
2022-10-19T03:12:06.414Z,0.60
2022-10-19T03:14:34.083Z,0.50
2022-10-19T03:17:01.836Z,0.85
2022-10-19T03:19:29.635Z,0.50
2022-10-19T03:21:57.402Z,1.00
2022-10-19T03:24:25.111Z,0.70
2022-10-19T03:26:52.828Z,1.00
2022-10-19T03:29:20.475Z,0.70
2022-10-19T03:31:48.190Z,0.80
2022-10-19T03:34:15.871Z,0.93
2022-10-19T03:36:43.697Z,0.53
2022-10-19T03:39:13.723Z,0.77
2022-10-19T03:41:41.449Z,0.93
2022-10-19T03:44:09.277Z,0.60
2022-10-19T03:46:37.098Z,0.90
2022-10-19T03:49:05.174Z,0.85
2022-10-19T03:51:32.952Z,1.05
2022-10-19T03:54:01.513Z,0.63
2022-10-19T03:56:29.839Z,0.40
2022-10-19T03:58:57.944Z,1.27
2022-10-19T04:01:35.340Z,1.00
2022-10-19T04:04:03.805Z,0.70
2022-10-19T04:06:32.766Z,0.85
2022-10-19T04:09:00.513Z,0.45
2022-10-19T04:11:28.968Z,0.63
2022-10-19T04:13:57.110Z,0.80
2022-10-19T04:16:25.147Z,0.70
2022-10-19T04:18:52.904Z,0.60
2022-10-19T04:21:30.561Z,0.90
2022-10-19T04:23:59.391Z,0.63
2022-10-19T04:26:27.214Z,1.20
2022-10-19T04:28:54.915Z,0.60
2022-10-19T04:31:22.654Z,0.65
2022-10-19T04:33:50.303Z,0.80
2022-10-19T04:36:18.074Z,0.67
2022-10-19T04:38:45.779Z,1.10
2022-10-19T04:41:16.777Z,0.75
2022-10-19T04:43:47.704Z,0.77
2022-10-19T04:46:17.868Z,1.33
2022-10-19T04:48:45.767Z,0.68
2022-10-19T04:51:14.417Z,0.60
2022-10-19T04:53:42.432Z,0.82
2022-10-19T04:56:11.088Z,0.80
2022-10-19T04:58:38.869Z,0.60
2022-10-19T05:01:10.529Z,0.73
2022-10-19T05:03:38.300Z,0.40
2022-10-19T05:06:07.331Z,0.75
2022-10-19T05:08:35.077Z,0.70
2022-10-19T05:11:03.681Z,0.75
2022-10-19T05:13:32.861Z,1.30
2022-10-19T05:16:00.960Z,0.63
2022-10-19T05:18:28.808Z,0.70
2022-10-19T05:21:06.026Z,1.02
2022-10-19T05:23:33.807Z,1.27
2022-10-19T05:26:04.812Z,0.90
2022-10-19T05:28:32.525Z,1.13
2022-10-19T05:31:06.889Z,0.75
2022-10-19T05:33:34.681Z,0.60
2022-10-19T05:36:10.874Z,0.90
2022-10-19T05:38:38.587Z,0.63
2022-10-19T05:41:06.369Z,1.13
2022-10-19T05:43:34.056Z,0.50
2022-10-19T05:46:05.523Z,0.60
2022-10-19T05:48:34.086Z,0.40
2022-10-19T05:51:02.257Z,0.80
2022-10-19T05:53:30.086Z,0.52
2022-10-19T05:55:57.884Z,1.05
2022-10-19T05:58:25.585Z,0.93
2022-10-19T06:00:56.446Z,1.00
2022-10-19T06:03:24.688Z,0.88
2022-10-19T06:05:52.640Z,0.50
2022-10-19T06:08:20.525Z,0.50
2022-10-19T06:10:48.286Z,0.40
2022-10-19T06:13:16.161Z,0.90
2022-10-19T06:15:43.892Z,0.60
2022-10-19T06:18:12.078Z,0.90
2022-10-19T06:20:40.541Z,0.40
2022-10-19T06:23:08.419Z,1.17
2022-10-19T06:25:36.261Z,0.65
2022-10-19T06:28:03.965Z,0.70
2022-10-19T06:30:31.792Z,0.80
2022-10-19T06:32:59.897Z,0.60
2022-10-19T06:35:27.722Z,0.80
2022-10-19T06:37:57.392Z,0.32
2022-10-19T06:40:25.713Z,0.80
2022-10-19T06:42:53.389Z,0.50
2022-10-19T06:45:21.176Z,0.80
2022-10-19T06:47:48.991Z,0.50
2022-10-19T06:50:16.876Z,0.50
2022-10-19T06:52:44.861Z,0.30
2022-10-19T06:55:12.620Z,0.67
2022-10-19T06:57:40.349Z,0.75
2022-10-19T07:00:08.383Z,0.47
2022-10-19T07:02:36.105Z,0.57
2022-10-19T07:05:06.931Z,0.70
2022-10-19T07:07:35.408Z,0.70
2022-10-19T07:10:03.573Z,0.88
2022-10-19T07:12:31.385Z,0.77
2022-10-19T07:14:59.146Z,0.88
2022-10-19T07:17:26.905Z,1.10
2022-10-19T07:19:57.610Z,0.90
2022-10-19T07:22:28.100Z,0.90
2022-10-19T07:24:56.230Z,0.73
2022-10-19T07:27:23.873Z,0.60
2022-10-19T07:29:51.619Z,1.30
2022-10-19T07:32:19.293Z,0.73
2022-10-19T07:34:47.022Z,0.50
2022-10-19T07:37:14.883Z,0.97
2022-10-19T07:39:42.720Z,1.20
2022-10-19T07:42:10.457Z,1.10
2022-10-19T07:44:38.261Z,0.70
2022-10-19T07:47:06.347Z,0.60
2022-10-19T07:49:34.126Z,0.80
2022-10-19T07:52:01.941Z,0.77
2022-10-19T07:54:29.671Z,0.63
2022-10-19T07:56:57.472Z,1.00
2022-10-19T07:59:25.119Z,0.93
2022-10-19T08:01:54.532Z,0.70
2022-10-19T08:07:09.884Z,0.65
2022-10-19T08:09:52.739Z,1.07
2022-10-19T08:12:21.235Z,0.82
2022-10-19T08:14:48.904Z,0.70
2022-10-19T08:17:17.855Z,1.02
2022-10-19T08:19:46.406Z,0.60
2022-10-19T08:22:14.222Z,0.68
2022-10-19T08:24:42.007Z,0.82
2022-10-19T08:27:09.661Z,0.87
2022-10-19T08:29:37.379Z,0.80
2022-10-19T08:32:05.157Z,0.95
2022-10-19T08:34:33.457Z,0.60
2022-10-19T08:37:06.828Z,1.25
2022-10-19T08:39:42.735Z,0.93
2022-10-19T08:42:16.096Z,0.80
2022-10-19T08:45:02.665Z,0.63
2022-10-19T08:47:31.328Z,1.08
2022-10-19T08:49:59.086Z,0.85
2022-10-19T08:52:34.634Z,1.10
2022-10-19T08:55:04.866Z,0.95
2022-10-19T08:57:38.534Z,1.00
2022-10-19T09:00:17.211Z,0.80
2022-10-19T09:02:44.862Z,1.02
2022-10-19T09:05:33.791Z,0.98
2022-10-19T09:08:01.468Z,1.08
2022-10-19T09:10:30.651Z,0.83
2022-10-19T09:13:02.067Z,0.65
2022-10-19T09:15:41.833Z,0.75
2022-10-19T09:18:35.671Z,0.83
2022-10-19T09:21:15.133Z,1.00
2022-10-19T09:23:47.775Z,0.50
2022-10-19T09:26:22.027Z,0.68
2022-10-19T09:28:56.589Z,0.68
2022-10-19T09:31:31.888Z,0.80
2022-10-19T09:34:03.644Z,0.63
2022-10-19T09:36:50.000Z,0.70
2022-10-19T09:39:18.724Z,0.52
2022-10-19T09:41:46.714Z,0.57
2022-10-19T09:44:14.494Z,0.30
2022-10-19T09:46:48.622Z,0.63
2022-10-19T09:49:16.396Z,0.95
2022-10-19T09:51:53.524Z,0.93
2022-10-19T09:54:25.671Z,0.68
2022-10-19T09:56:53.847Z,0.55
2022-10-19T09:59:22.757Z,0.65
2022-10-19T10:02:00.499Z,0.70
2022-10-19T10:04:28.373Z,0.57
2022-10-19T10:06:56.135Z,0.68
2022-10-19T10:09:26.205Z,0.63
2022-10-19T10:14:33.850Z,0.88
2022-10-19T10:17:14.015Z,0.57
2022-10-19T10:19:50.209Z,0.90
2022-10-19T10:22:34.540Z,0.32
2022-10-19T10:25:02.501Z,1.15
2022-10-19T10:27:34.506Z,0.93
2022-10-19T10:30:06.392Z,0.73
2022-10-19T10:32:34.439Z,0.57
2022-10-19T10:35:06.723Z,0.67
2022-10-19T10:37:34.856Z,0.52
2022-10-19T10:40:04.799Z,1.08
2022-10-19T10:42:36.588Z,0.60
2022-10-19T10:45:04.671Z,0.63
2022-10-19T10:47:32.727Z,0.85
2022-10-19T10:50:06.947Z,0.68
2022-10-19T10:52:36.713Z,1.13
2022-10-19T10:55:10.584Z,0.40
2022-10-19T10:57:41.900Z,0.43
2022-10-19T11:00:14.228Z,0.67
2022-10-19T11:02:41.920Z,0.55
2022-10-19T11:05:26.747Z,0.50
2022-10-19T11:07:59.036Z,0.50
2022-10-19T11:10:28.012Z,0.80
2022-10-19T11:13:15.897Z,0.60
2022-10-19T11:16:05.050Z,0.88
2022-10-19T11:18:36.828Z,0.57
2022-10-19T11:21:11.239Z,0.60
2022-10-19T11:24:05.016Z,0.65
2022-10-19T11:26:35.747Z,1.00
2022-10-19T11:29:11.198Z,0.65
2022-10-19T11:31:42.994Z,0.75
2022-10-19T11:34:26.101Z,0.70
2022-10-19T11:36:56.748Z,0.40
2022-10-19T11:39:24.400Z,0.80
2022-10-19T11:42:16.068Z,0.60
2022-10-19T11:44:51.752Z,0.83
2022-10-19T11:47:31.501Z,0.40
2022-10-19T11:50:02.320Z,0.82
2022-10-19T11:52:30.184Z,0.63
2022-10-19T11:55:01.451Z,0.70
2022-10-19T11:57:30.972Z,0.52
2022-10-19T12:00:14.973Z,0.88
2022-10-19T12:03:04.088Z,0.88
2022-10-19T12:05:37.634Z,0.98
2022-10-19T12:08:25.777Z,0.80
2022-10-19T12:10:53.457Z,0.70
2022-10-19T12:13:22.478Z,0.57
2022-10-19T12:15:54.076Z,0.70
2022-10-19T12:18:40.341Z,0.67
2022-10-19T12:21:10.346Z,0.40
2022-10-19T12:23:41.468Z,0.70
2022-10-19T12:26:09.882Z,0.70
2022-10-19T12:28:41.829Z,1.23
2022-10-19T12:31:11.150Z,1.05
2022-10-19T12:33:47.405Z,0.60
2022-10-19T12:36:15.201Z,1.03
2022-10-19T12:38:59.735Z,1.05
2022-10-19T12:41:31.209Z,0.65
2022-10-19T12:43:58.834Z,0.97
2022-10-19T12:46:48.358Z,1.00
2022-10-19T12:49:28.178Z,0.93
2022-10-19T12:51:56.379Z,0.70
2022-10-19T12:54:28.084Z,1.73
2022-10-19T12:56:57.077Z,0.40
2022-10-19T12:59:25.788Z,0.50
2022-10-19T13:01:53.664Z,0.67
2022-10-19T13:04:28.094Z,0.77
2022-10-19T13:06:59.043Z,0.40
2022-10-19T13:10:00.157Z,0.40
2022-10-19T13:12:28.374Z,0.77
2022-10-19T13:15:02.769Z,0.80
2022-10-19T13:17:50.927Z,0.70
2022-10-19T13:20:18.943Z,0.65
2022-10-19T13:22:50.378Z,0.93
2022-10-19T13:25:18.929Z,0.80
2022-10-19T13:27:49.751Z,0.93
2022-10-19T13:30:36.166Z,0.65
2022-10-19T13:33:22.749Z,0.65
2022-10-19T13:35:50.406Z,0.53
2022-10-19T13:38:18.495Z,0.80
2022-10-19T13:40:49.080Z,0.88
2022-10-19T13:43:20.878Z,0.63
2022-10-19T13:46:01.064Z,0.88
2022-10-19T13:48:33.188Z,1.23
2022-10-19T13:51:24.170Z,0.70
2022-10-19T13:53:54.689Z,0.50
2022-10-19T13:56:32.780Z,0.50
2022-10-19T13:59:06.323Z,0.40
2022-10-19T14:01:40.485Z,0.53
2022-10-19T14:04:13.333Z,0.70
2022-10-19T14:06:45.029Z,0.60
2022-10-19T14:09:12.675Z,0.57
2022-10-19T14:11:43.990Z,0.80
2022-10-19T14:14:11.632Z,0.57
2022-10-19T14:17:08.677Z,0.52
2022-10-19T14:19:44.272Z,0.50
2022-10-19T14:22:19.041Z,0.63
2022-10-19T14:24:46.684Z,0.55
2022-10-19T14:27:17.154Z,0.60
2022-10-19T14:29:46.663Z,0.82
2022-10-19T14:32:17.092Z,0.57
2022-10-19T14:34:45.054Z,0.88
2022-10-19T14:37:20.285Z,1.13
2022-10-19T14:40:03.546Z,0.60
2022-10-19T14:42:39.097Z,0.45
2022-10-19T14:45:10.342Z,0.87
2022-10-19T14:47:38.088Z,0.68
2022-10-19T14:50:06.012Z,0.65
2022-10-19T14:52:34.625Z,0.90
2022-10-19T14:55:02.747Z,0.73
2022-10-19T14:57:31.951Z,1.15
2022-10-19T15:00:00.547Z,0.50
2022-10-19T15:02:47.764Z,0.52
2022-10-19T15:05:20.458Z,0.95
2022-10-19T15:07:48.316Z,0.60
2022-10-19T15:10:20.192Z,0.80
2022-10-19T15:12:47.904Z,0.57
2022-10-19T15:15:28.775Z,0.70
2022-10-19T15:17:57.469Z,0.80
2022-10-19T15:20:43.844Z,0.70
2022-10-19T15:23:56.070Z,0.93
2022-10-19T15:26:26.634Z,0.63
2022-10-19T15:28:54.939Z,1.08
2022-10-19T15:31:25.615Z,0.98
2022-10-19T15:33:54.057Z,0.80
2022-10-19T15:36:22.170Z,1.03
2022-10-19T15:39:18.543Z,0.60
2022-10-19T15:41:53.056Z,0.73
2022-10-19T15:44:39.201Z,0.70
2022-10-19T15:47:20.558Z,0.80
2022-10-19T15:50:00.325Z,0.68
2022-10-19T15:52:32.672Z,1.07
2022-10-19T15:55:00.563Z,0.60
2022-10-19T15:57:32.797Z,0.60
2022-10-19T16:00:01.638Z,0.88
2022-10-19T16:02:29.471Z,1.10
2022-10-19T16:04:57.233Z,0.70
2022-10-19T16:07:28.926Z,0.57
2022-10-19T16:09:56.742Z,0.80
2022-10-19T16:12:24.678Z,0.70
2022-10-19T16:14:52.460Z,1.30
2022-10-19T16:17:20.099Z,1.50
2022-10-19T16:19:47.858Z,1.35
2022-10-19T16:22:16.915Z,1.27
2022-10-19T16:24:44.784Z,1.08
2022-10-19T16:27:15.325Z,1.00
2022-10-19T16:29:43.699Z,1.10
2022-10-19T16:32:11.412Z,1.25
2022-10-19T16:34:39.214Z,1.10
2022-10-19T16:37:07.562Z,1.65
2022-10-19T16:39:35.496Z,1.23
2022-10-19T16:42:03.225Z,1.67
2022-10-19T16:44:30.927Z,1.48
2022-10-19T16:46:58.680Z,1.70
2022-10-19T16:49:26.380Z,1.63
2022-10-19T16:51:57.206Z,1.33
2022-10-19T16:54:26.934Z,1.40
2022-10-19T16:56:55.786Z,1.40
2022-10-19T16:59:23.702Z,1.20
2022-10-19T17:01:53.874Z,1.90
2022-10-19T17:04:22.173Z,1.70
2022-10-19T17:06:49.883Z,1.47
2022-10-19T17:12:05.555Z,1.23
2022-10-19T17:14:33.295Z,1.65
2022-10-19T17:17:01.095Z,1.43
2022-10-19T17:19:28.922Z,1.65
2022-10-19T17:21:57.721Z,1.52
2022-10-19T17:24:25.617Z,1.30
2022-10-19T17:26:56.036Z,2.03
2022-10-19T17:29:23.882Z,1.73
2022-10-19T17:31:51.627Z,1.97
2022-10-19T17:34:19.567Z,1.25
2022-10-19T17:36:47.390Z,1.13
2022-10-19T17:39:17.934Z,1.75
2022-10-19T17:41:46.385Z,1.90
2022-10-19T17:44:14.220Z,2.03
2022-10-19T17:46:43.284Z,2.10
2022-10-19T17:49:11.306Z,1.90
2022-10-19T17:51:39.305Z,2.30
2022-10-19T17:54:07.816Z,1.88
2022-10-19T17:56:35.808Z,2.10
2022-10-19T17:59:03.701Z,2.28
2022-10-19T18:01:31.462Z,2.40
2022-10-19T18:03:59.315Z,2.15
2022-10-19T18:06:31.207Z,1.97
2022-10-19T18:08:59.728Z,2.05
2022-10-19T18:11:31.556Z,2.10
2022-10-19T18:13:59.760Z,1.93
2022-10-19T18:16:29.542Z,2.00
2022-10-19T18:18:57.822Z,2.22
2022-10-19T18:21:29.253Z,1.90
2022-10-19T18:23:57.315Z,1.90
2022-10-19T18:26:25.780Z,2.22
2022-10-19T18:28:54.071Z,2.95
2022-10-19T18:31:25.949Z,1.83
2022-10-19T18:33:57.412Z,2.00
2022-10-19T18:36:25.306Z,2.15
2022-10-19T18:38:53.729Z,1.87
2022-10-19T18:41:23.936Z,1.77
2022-10-19T18:43:53.904Z,2.03
2022-10-19T18:46:22.012Z,1.87
2022-10-19T18:48:52.897Z,1.90
2022-10-19T18:51:20.975Z,1.83
2022-10-19T18:53:48.701Z,1.95
2022-10-19T18:56:17.205Z,1.77
2022-10-19T18:58:45.008Z,1.88
2022-10-19T19:01:13.577Z,1.90
2022-10-19T19:03:42.078Z,1.80
2022-10-19T19:06:11.498Z,2.15
2022-10-19T19:08:39.760Z,1.50
2022-10-19T19:11:15.717Z,1.50
2022-10-19T19:13:43.806Z,1.52
2022-10-19T19:16:11.730Z,1.55
2022-10-19T19:18:39.694Z,1.50
2022-10-19T19:21:13.530Z,1.40
2022-10-19T19:23:41.237Z,0.82
2022-10-19T19:26:10.828Z,1.33
2022-10-19T19:28:41.508Z,1.37
2022-10-19T19:31:11.764Z,1.27
2022-10-19T19:33:40.785Z,1.52
2022-10-19T19:36:12.279Z,1.20
2022-10-19T19:38:39.998Z,1.20
2022-10-19T19:41:08.744Z,1.42
2022-10-19T19:43:39.591Z,1.77
2022-10-19T19:46:09.662Z,1.60
2022-10-19T19:48:37.914Z,1.83
2022-10-19T19:51:06.049Z,1.90
2022-10-19T19:53:36.073Z,2.47
2022-10-19T19:56:04.505Z,1.50
2022-10-19T19:58:36.080Z,1.80
2022-10-19T20:01:13.861Z,1.57
2022-10-19T20:03:45.918Z,1.52
2022-10-19T20:06:13.873Z,1.50
2022-10-19T20:08:41.620Z,1.45
2022-10-19T20:11:10.265Z,1.30
2022-10-19T20:13:38.149Z,1.85
2022-10-19T20:16:12.791Z,1.38
2022-10-19T20:18:41.094Z,1.40
2022-10-19T20:21:08.887Z,1.40
2022-10-19T20:23:36.737Z,1.15
2022-10-19T20:26:04.473Z,1.37
2022-10-19T20:28:35.297Z,1.60
2022-10-19T20:31:03.614Z,1.60
2022-10-19T20:33:32.061Z,1.92
2022-10-19T20:36:06.570Z,1.60
2022-10-19T20:38:34.718Z,1.25
2022-10-19T20:41:07.919Z,1.13
2022-10-19T20:43:36.523Z,1.23
2022-10-19T20:46:05.073Z,1.45
2022-10-19T20:48:32.841Z,1.35
2022-10-19T20:51:14.120Z,1.50
2022-10-19T20:53:42.138Z,0.73
2022-10-19T20:56:10.600Z,0.70
2022-10-19T20:58:43.399Z,0.82
2022-10-19T21:01:12.188Z,0.80
2022-10-19T21:03:39.973Z,0.77
2022-10-19T21:06:08.298Z,1.25
2022-10-19T21:08:36.348Z,0.80
2022-10-19T21:11:13.941Z,0.98
2022-10-19T21:13:41.736Z,0.52
2022-10-19T21:16:10.391Z,1.03
2022-10-19T21:18:38.073Z,1.08
2022-10-19T21:21:18.777Z,0.70
2022-10-19T21:23:47.396Z,1.20
2022-10-19T21:26:15.176Z,0.90
2022-10-19T21:28:54.539Z,0.93
2022-10-19T21:31:23.160Z,1.13
2022-10-19T21:33:51.783Z,0.70
2022-10-19T21:36:19.834Z,0.70
2022-10-19T21:38:47.536Z,1.05
2022-10-19T21:41:16.333Z,1.30
2022-10-19T21:43:44.057Z,1.15
2022-10-19T21:46:15.371Z,1.05
2022-10-19T21:48:43.302Z,0.65
2022-10-19T21:51:12.560Z,0.50
2022-10-19T21:53:40.285Z,1.33
2022-10-19T21:56:07.935Z,1.25
2022-10-19T21:58:35.662Z,1.43
2022-10-19T22:01:06.663Z,1.02
2022-10-19T22:03:34.601Z,1.00
2022-10-19T22:06:02.253Z,0.70
2022-10-19T22:08:29.977Z,1.30
2022-10-19T22:10:57.706Z,0.88
2022-10-19T22:13:25.512Z,1.35
2022-10-19T22:15:53.239Z,1.03
2022-10-19T22:18:20.889Z,1.10
2022-10-19T22:20:48.614Z,0.90
2022-10-19T22:23:16.338Z,1.27
2022-10-19T22:25:44.054Z,1.00
2022-10-19T22:28:11.690Z,1.33
2022-10-19T22:30:41.016Z,1.07
2022-10-19T22:33:08.655Z,1.00
2022-10-19T22:35:36.385Z,0.80
2022-10-19T22:38:04.055Z,1.25
2022-10-19T22:40:31.811Z,1.37
2022-10-19T22:43:00.667Z,1.30
2022-10-19T22:45:30.069Z,1.40
2022-10-19T22:47:57.799Z,1.07
2022-10-19T22:50:25.441Z,1.17
2022-10-19T22:52:53.160Z,1.10
2022-10-19T22:55:20.831Z,1.07
2022-10-19T22:57:48.603Z,0.93
2022-10-19T23:00:17.874Z,1.40
2022-10-19T23:02:45.660Z,1.15
2022-10-19T23:05:13.401Z,1.20
2022-10-19T23:07:41.147Z,0.93
2022-10-19T23:10:09.041Z,1.30
2022-10-19T23:12:36.777Z,1.03
2022-10-19T23:15:04.718Z,1.10
2022-10-19T23:17:32.558Z,1.05
2022-10-19T23:20:00.468Z,0.93
2022-10-19T23:22:28.175Z,1.45
2022-10-19T23:24:55.941Z,1.10
2022-10-19T23:27:23.663Z,1.08
2022-10-19T23:29:51.313Z,1.17
2022-10-19T23:32:19.034Z,0.80
2022-10-19T23:34:48.408Z,1.13
2022-10-19T23:37:16.432Z,2.13
2022-10-19T23:39:44.084Z,1.33
2022-10-19T23:42:11.801Z,1.17
2022-10-19T23:44:39.438Z,0.93
2022-10-19T23:47:07.163Z,1.13
2022-10-19T23:49:34.818Z,1.25
2022-10-19T23:52:02.558Z,1.50
2022-10-19T23:54:30.264Z,1.60
2022-10-19T23:56:57.871Z,1.80
2022-10-19T23:59:25.583Z,1.30
